createdAt,value
2017-11-26T00:00:37.596Z,4.39
2017-11-26T00:01:44.084Z,4.37
2017-11-26T00:02:49.830Z,4.38
2017-11-26T00:03:55.555Z,4.34
2017-11-26T00:05:01.267Z,4.33
2017-11-26T00:06:07.767Z,4.29
2017-11-26T00:07:13.474Z,4.26
2017-11-26T00:08:19.226Z,4.26
2017-11-26T00:09:24.945Z,4.23
2017-11-26T00:10:31.432Z,4.22
2017-11-26T00:11:37.146Z,4.21
2017-11-26T00:12:43.427Z,4.19
2017-11-26T00:13:49.180Z,4.16
2017-11-26T00:14:54.895Z,4.15
2017-11-26T00:16:01.380Z,4.12
2017-11-26T00:17:07.114Z,4.10
2017-11-26T00:18:12.638Z,4.11
2017-11-26T00:19:18.370Z,4.13
2017-11-26T00:20:23.898Z,4.12
2017-11-26T00:21:30.385Z,4.11
2017-11-26T00:22:35.907Z,4.10
2017-11-26T00:23:41.631Z,4.09
2017-11-26T00:24:48.129Z,4.06
2017-11-26T00:25:53.841Z,4.05
2017-11-26T00:26:59.561Z,4.04
2017-11-26T00:28:05.270Z,4.04
2017-11-26T00:29:10.981Z,4.03
2017-11-26T00:30:16.738Z,4.03
2017-11-26T00:31:22.465Z,4.02
2017-11-26T00:32:28.004Z,4.01
2017-11-26T00:33:33.709Z,3.99
2017-11-26T00:34:40.058Z,3.98
2017-11-26T00:35:45.608Z,3.97
2017-11-26T00:36:52.083Z,3.96
2017-11-26T00:37:57.615Z,3.96
2017-11-26T00:39:03.332Z,3.96
2017-11-26T00:40:09.815Z,3.94
2017-11-26T00:41:15.565Z,3.96
2017-11-26T00:42:21.274Z,3.96
2017-11-26T00:43:27.070Z,3.97
2017-11-26T00:44:32.783Z,3.95
2017-11-26T00:45:38.500Z,3.93
2017-11-26T00:46:44.810Z,3.92
2017-11-26T00:47:50.538Z,3.91
2017-11-26T00:48:56.253Z,3.90
2017-11-26T00:50:01.979Z,3.91
2017-11-26T00:51:08.464Z,3.91
2017-11-26T00:52:14.267Z,3.87
2017-11-26T00:53:20.753Z,3.88
2017-11-26T00:54:26.468Z,3.88
2017-11-26T00:55:32.959Z,3.86
2017-11-26T00:56:38.663Z,3.87
2017-11-26T00:57:44.410Z,3.85
2017-11-26T00:58:50.917Z,3.83
2017-11-26T00:59:56.653Z,3.82
2017-11-26T01:01:02.363Z,3.82
2017-11-26T01:02:08.084Z,3.83
2017-11-26T01:03:13.814Z,3.81
2017-11-26T01:04:19.535Z,3.81
2017-11-26T01:05:25.238Z,3.77
2017-11-26T01:06:30.946Z,3.77
2017-11-26T01:07:36.654Z,3.76
2017-11-26T01:08:42.394Z,3.75
2017-11-26T01:09:47.903Z,3.76
2017-11-26T01:10:53.626Z,3.76
2017-11-26T01:12:00.106Z,3.74
2017-11-26T01:13:05.820Z,3.70
2017-11-26T01:14:12.324Z,3.70
2017-11-26T01:15:18.039Z,3.70
2017-11-26T01:16:23.768Z,3.69
2017-11-26T01:17:29.474Z,3.68
2017-11-26T01:18:35.389Z,3.69
2017-11-26T01:19:41.138Z,3.69
2017-11-26T01:20:46.850Z,3.70
2017-11-26T01:21:52.553Z,3.72
2017-11-26T01:22:59.041Z,3.73
2017-11-26T01:24:04.758Z,3.74
2017-11-26T01:25:11.266Z,3.74
2017-11-26T01:26:16.990Z,3.72
2017-11-26T01:27:22.720Z,3.72
2017-11-26T01:28:28.435Z,3.72
2017-11-26T01:29:34.933Z,3.73
2017-11-26T01:30:40.704Z,3.72
2017-11-26T01:31:46.437Z,3.70
2017-11-26T01:32:52.157Z,3.68
2017-11-26T01:33:57.870Z,3.68
2017-11-26T01:35:03.595Z,3.68
2017-11-26T01:36:10.118Z,3.67
2017-11-26T01:37:15.838Z,3.66
2017-11-26T01:38:21.549Z,3.68
2017-11-26T01:39:28.027Z,3.65
2017-11-26T01:40:33.745Z,3.65
2017-11-26T01:41:40.258Z,3.64
2017-11-26T01:42:45.990Z,3.65
2017-11-26T01:43:51.715Z,3.67
2017-11-26T01:44:57.432Z,3.65
2017-11-26T01:46:03.160Z,3.65
2017-11-26T01:47:09.669Z,3.66
2017-11-26T01:48:15.395Z,3.67
2017-11-26T01:49:21.116Z,3.67
2017-11-26T01:50:26.834Z,3.67
2017-11-26T01:51:33.136Z,3.69
2017-11-26T01:52:39.603Z,3.69
2017-11-26T01:53:45.322Z,3.68
2017-11-26T01:54:50.865Z,3.67
2017-11-26T01:55:56.407Z,3.67
2017-11-26T01:57:02.128Z,3.67
2017-11-26T01:58:07.699Z,3.64
2017-11-26T01:59:13.425Z,3.65
2017-11-26T02:00:18.484Z,3.65
2017-11-26T02:01:23.558Z,3.60
2017-11-26T02:02:29.025Z,3.62
2017-11-26T02:03:34.013Z,3.61
2017-11-26T02:04:39.404Z,3.62
2017-11-26T02:05:44.934Z,3.62
2017-11-26T02:06:50.674Z,3.63
2017-11-26T02:07:56.395Z,3.65
2017-11-26T02:09:01.955Z,3.65
2017-11-26T02:10:07.492Z,3.68
2017-11-26T02:11:13.026Z,3.69
2017-11-26T02:12:18.757Z,3.71
2017-11-26T02:13:24.489Z,3.73
2017-11-26T02:14:30.236Z,3.75
2017-11-26T02:15:35.961Z,3.76
2017-11-26T02:16:41.707Z,3.75
2017-11-26T02:17:47.527Z,3.76
2017-11-26T02:18:53.258Z,3.79
2017-11-26T02:19:58.395Z,3.77
2017-11-26T02:21:03.466Z,3.75
2017-11-26T02:22:08.857Z,3.77
2017-11-26T02:23:14.233Z,3.81
2017-11-26T02:24:19.301Z,3.82
2017-11-26T02:25:25.065Z,3.81
2017-11-26T02:26:30.448Z,3.82
2017-11-26T02:27:35.902Z,3.82
2017-11-26T02:28:41.736Z,3.82
2017-11-26T02:29:47.569Z,3.81
2017-11-26T02:30:53.557Z,3.78
2017-11-26T02:32:16.281Z,3.77
2017-11-26T02:33:38.932Z,3.78
2017-11-26T02:35:01.391Z,3.75
2017-11-26T02:36:23.441Z,3.74
2017-11-26T02:37:29.279Z,3.73
2017-11-26T02:38:35.003Z,3.71
2017-11-26T02:39:40.070Z,3.67
2017-11-26T02:40:46.425Z,3.65
2017-11-26T02:41:52.279Z,3.65
2017-11-26T02:42:57.371Z,3.62
2017-11-26T02:44:02.418Z,3.60
2017-11-26T02:45:08.906Z,3.59
2017-11-26T02:46:14.631Z,3.58
2017-11-26T02:47:19.518Z,3.56
2017-11-26T02:48:25.257Z,3.53
2017-11-26T02:49:30.323Z,3.51
2017-11-26T02:50:36.455Z,3.50
2017-11-26T02:51:42.271Z,3.48
2017-11-26T02:52:47.428Z,3.47
2017-11-26T02:53:52.824Z,3.46
2017-11-26T02:54:57.876Z,3.44
2017-11-26T02:56:03.566Z,3.42
2017-11-26T02:57:09.287Z,3.39
2017-11-26T02:58:15.052Z,3.39
2017-11-26T02:59:20.110Z,3.40
2017-11-26T03:00:26.253Z,3.40
2017-11-26T03:01:31.647Z,3.38
2017-11-26T03:02:37.350Z,3.36
2017-11-26T03:03:43.916Z,3.35
2017-11-26T03:04:50.398Z,3.35
2017-11-26T03:05:56.128Z,3.34
2017-11-26T03:07:02.616Z,3.33
2017-11-26T03:08:08.378Z,3.31
2017-11-26T03:09:14.123Z,3.29
2017-11-26T03:10:19.639Z,3.28
2017-11-26T03:11:25.362Z,3.27
2017-11-26T03:12:31.082Z,3.28
2017-11-26T03:13:37.570Z,3.28
2017-11-26T03:14:43.314Z,3.27
2017-11-26T03:15:49.038Z,3.26
2017-11-26T03:16:54.763Z,3.26
2017-11-26T03:18:01.241Z,3.23
2017-11-26T03:19:06.955Z,3.24
2017-11-26T03:20:13.475Z,3.21
2017-11-26T03:21:19.220Z,3.21
2017-11-26T03:22:24.634Z,3.22
2017-11-26T03:23:30.354Z,3.21
2017-11-26T03:24:36.072Z,3.22
2017-11-26T03:25:42.585Z,3.21
2017-11-26T03:26:48.129Z,3.17
2017-11-26T03:27:53.651Z,3.17
2017-11-26T03:28:59.196Z,3.17
2017-11-26T03:30:04.417Z,3.18
2017-11-26T03:31:10.166Z,3.18
2017-11-26T03:32:15.910Z,3.18
2017-11-26T03:33:21.435Z,3.18
2017-11-26T03:34:27.169Z,3.17
2017-11-26T03:35:32.703Z,3.14
2017-11-26T03:36:38.438Z,3.13
2017-11-26T03:37:44.152Z,3.12
2017-11-26T03:38:49.683Z,3.10
2017-11-26T03:39:55.987Z,3.09
2017-11-26T03:41:01.707Z,3.08
2017-11-26T03:42:07.458Z,3.05
2017-11-26T03:43:13.187Z,3.04
2017-11-26T03:44:18.893Z,3.04
2017-11-26T03:45:25.378Z,3.03
2017-11-26T03:46:31.089Z,3.03
2017-11-26T03:47:37.604Z,3.03
2017-11-26T03:48:43.322Z,3.04
2017-11-26T03:49:49.038Z,3.05
2017-11-26T03:50:55.528Z,3.08
2017-11-26T03:52:01.271Z,3.07
2017-11-26T03:53:06.711Z,3.07
2017-11-26T03:54:12.307Z,3.04
2017-11-26T03:55:18.181Z,3.07
2017-11-26T03:56:24.324Z,3.07
2017-11-26T03:57:29.871Z,3.04
2017-11-26T03:58:35.421Z,3.05
2017-11-26T03:59:41.140Z,3.04
2017-11-26T04:00:46.855Z,3.04
2017-11-26T04:01:53.329Z,3.06
2017-11-26T04:02:59.045Z,3.05
2017-11-26T04:04:05.559Z,3.04
2017-11-26T04:05:11.286Z,3.03
2017-11-26T04:06:17.055Z,3.04
2017-11-26T04:07:22.593Z,3.02
2017-11-26T04:08:28.503Z,3.02
2017-11-26T04:09:34.267Z,3.02
2017-11-26T04:10:39.999Z,3.04
2017-11-26T04:11:45.718Z,3.00
2017-11-26T04:12:51.450Z,2.98
2017-11-26T04:13:57.185Z,2.98
2017-11-26T04:15:03.691Z,2.97
2017-11-26T04:16:08.754Z,2.97
2017-11-26T04:17:13.817Z,2.96
2017-11-26T04:18:18.882Z,2.95
2017-11-26T04:19:24.276Z,2.93
2017-11-26T04:20:30.014Z,2.92
2017-11-26T04:21:35.730Z,2.94
2017-11-26T04:22:42.220Z,2.93
2017-11-26T04:23:47.935Z,2.92
2017-11-26T04:24:54.418Z,2.90
2017-11-26T04:25:59.506Z,2.90
2017-11-26T04:27:05.658Z,2.92
2017-11-26T04:28:11.374Z,2.91
2017-11-26T04:29:17.095Z,2.89
2017-11-26T04:30:22.812Z,2.90
2017-11-26T04:31:28.560Z,2.89
2017-11-26T04:32:34.284Z,2.88
2017-11-26T04:33:40.000Z,2.85
2017-11-26T04:34:46.478Z,2.83
2017-11-26T04:35:51.857Z,2.82
2017-11-26T04:36:57.597Z,2.86
2017-11-26T04:38:03.321Z,2.85
2017-11-26T04:39:09.035Z,2.85
2017-11-26T04:40:14.765Z,2.85
2017-11-26T04:41:21.241Z,2.85
2017-11-26T04:42:27.009Z,2.82
2017-11-26T04:43:32.733Z,2.84
2017-11-26T04:44:38.436Z,2.85
2017-11-26T04:45:45.126Z,2.84
2017-11-26T04:46:50.833Z,2.84
2017-11-26T04:47:56.574Z,2.85
2017-11-26T04:49:03.068Z,2.85
2017-11-26T04:50:08.801Z,2.83
2017-11-26T04:51:15.290Z,2.81
2017-11-26T04:52:20.806Z,2.84
2017-11-26T04:53:26.363Z,2.81
2017-11-26T04:54:32.084Z,2.80
2017-11-26T04:55:37.827Z,2.80
2017-11-26T04:56:43.556Z,2.80
2017-11-26T04:57:49.266Z,2.79
2017-11-26T04:58:55.593Z,2.80
2017-11-26T05:00:01.318Z,2.80
2017-11-26T05:01:06.455Z,2.83
2017-11-26T05:02:11.087Z,2.81
2017-11-26T05:03:16.147Z,2.80
2017-11-26T05:04:21.998Z,2.80
2017-11-26T05:05:27.050Z,2.79
2017-11-26T05:06:32.780Z,2.78
2017-11-26T05:07:38.499Z,2.78
2017-11-26T05:08:44.989Z,2.75
2017-11-26T05:09:50.737Z,2.72
2017-11-26T05:10:56.465Z,2.75
2017-11-26T05:12:02.197Z,2.73
2017-11-26T05:13:07.919Z,2.73
2017-11-26T05:14:14.439Z,2.74
2017-11-26T05:15:25.890Z,2.75
2017-11-26T05:16:31.612Z,2.75
2017-11-26T05:17:37.332Z,2.76
2017-11-26T05:18:43.823Z,2.77
2017-11-26T05:19:49.539Z,2.78
2017-11-26T05:20:56.045Z,2.78
2017-11-26T05:22:01.855Z,2.77
2017-11-26T05:23:07.562Z,2.76
2017-11-26T05:24:14.064Z,2.76
2017-11-26T05:25:19.806Z,2.76
2017-11-26T05:26:25.551Z,2.76
2017-11-26T05:27:31.266Z,2.77
2017-11-26T05:28:37.755Z,2.77
2017-11-26T05:29:43.491Z,2.77
2017-11-26T05:30:49.205Z,2.75
2017-11-26T05:31:54.950Z,2.75
2017-11-26T05:33:00.663Z,2.77
2017-11-26T05:34:07.149Z,2.79
2017-11-26T05:35:12.678Z,2.79
2017-11-26T05:36:18.400Z,2.80
2017-11-26T05:37:23.959Z,2.79
2017-11-26T05:38:29.679Z,2.76
2017-11-26T05:39:36.171Z,2.76
2017-11-26T05:40:41.891Z,2.77
2017-11-26T05:41:48.682Z,2.78
2017-11-26T05:42:54.221Z,2.79
2017-11-26T05:43:59.942Z,2.80
2017-11-26T05:45:06.238Z,2.79
2017-11-26T05:46:11.752Z,2.77
2017-11-26T05:47:17.466Z,2.77
2017-11-26T05:48:23.793Z,2.79
2017-11-26T05:49:29.517Z,2.77
2017-11-26T05:50:35.058Z,2.75
2017-11-26T05:51:40.778Z,2.74
2017-11-26T05:52:46.500Z,2.74
2017-11-26T05:53:52.247Z,2.76
2017-11-26T05:54:57.972Z,2.76
2017-11-26T05:56:03.702Z,2.75
2017-11-26T05:57:09.424Z,2.75
2017-11-26T05:58:15.908Z,2.75
2017-11-26T05:59:21.662Z,2.76
2017-11-26T06:00:26.713Z,2.76
2017-11-26T06:01:32.429Z,2.78
2017-11-26T06:02:38.139Z,2.77
2017-11-26T06:03:44.957Z,2.75
2017-11-26T06:04:50.568Z,2.74
2017-11-26T06:05:56.362Z,2.74
2017-11-26T06:07:02.090Z,2.74
2017-11-26T06:08:07.803Z,2.76
2017-11-26T06:09:13.519Z,2.78
2017-11-26T06:10:20.028Z,2.79
2017-11-26T06:11:25.742Z,2.77
2017-11-26T06:12:31.479Z,2.78
2017-11-26T06:13:37.960Z,2.76
2017-11-26T06:14:43.690Z,2.76
2017-11-26T06:15:49.421Z,2.78
2017-11-26T06:16:55.133Z,2.79
2017-11-26T06:18:01.615Z,2.79
2017-11-26T06:19:07.338Z,2.78
2017-11-26T06:20:13.813Z,2.77
2017-11-26T06:21:19.236Z,2.79
2017-11-26T06:22:24.767Z,2.80
2017-11-26T06:23:31.245Z,2.81
2017-11-26T06:24:36.957Z,2.80
2017-11-26T06:25:43.455Z,2.81
2017-11-26T06:26:49.184Z,2.81
2017-11-26T06:27:54.569Z,2.85
2017-11-26T06:29:01.050Z,2.86
2017-11-26T06:30:07.539Z,2.83
2017-11-26T06:31:14.018Z,2.86
2017-11-26T06:32:19.764Z,2.85
2017-11-26T06:33:25.297Z,2.85
2017-11-26T06:34:30.684Z,2.81
2017-11-26T06:35:36.213Z,2.79
2017-11-26T06:36:42.363Z,2.81
2017-11-26T06:37:48.695Z,2.81
2017-11-26T06:38:54.414Z,2.81
2017-11-26T06:39:59.925Z,2.81
2017-11-26T06:41:05.480Z,2.80
2017-11-26T06:42:11.195Z,2.80
2017-11-26T06:43:16.932Z,2.81
2017-11-26T06:44:22.458Z,2.82
2017-11-26T06:45:28.171Z,2.81
2017-11-26T06:46:33.702Z,2.81
2017-11-26T06:47:39.478Z,2.83
2017-11-26T06:48:45.232Z,2.82
2017-11-26T06:49:50.951Z,2.83
2017-11-26T06:50:57.445Z,2.84
2017-11-26T06:52:03.153Z,2.83
2017-11-26T06:53:09.642Z,2.84
2017-11-26T06:54:15.384Z,2.85
2017-11-26T06:55:20.911Z,2.85
2017-11-26T06:56:26.626Z,2.87
2017-11-26T06:57:32.913Z,2.87
2017-11-26T06:58:38.622Z,2.87
2017-11-26T06:59:45.145Z,2.87
2017-11-26T07:00:50.860Z,2.87
2017-11-26T07:01:56.390Z,2.86
2017-11-26T07:03:02.120Z,2.85
2017-11-26T07:04:07.836Z,2.84
2017-11-26T07:05:14.339Z,2.87
2017-11-26T07:06:20.061Z,2.87
2017-11-26T07:07:25.794Z,2.87
2017-11-26T07:08:31.511Z,2.86
2017-11-26T07:09:37.989Z,2.87
2017-11-26T07:10:43.125Z,2.87
2017-11-26T07:11:48.514Z,2.89
2017-11-26T07:12:53.566Z,2.89
2017-11-26T07:13:58.644Z,2.90
2017-11-26T07:15:04.370Z,2.91
2017-11-26T07:16:10.112Z,2.91
2017-11-26T07:17:15.849Z,2.91
2017-11-26T07:18:21.563Z,2.91
2017-11-26T07:19:27.370Z,2.93
2017-11-26T07:20:33.082Z,2.94
2017-11-26T07:21:38.831Z,2.92
2017-11-26T07:22:44.204Z,2.93
2017-11-26T07:23:50.698Z,2.90
2017-11-26T07:24:56.473Z,2.91
2017-11-26T07:26:02.200Z,2.91
2017-11-26T07:27:07.937Z,2.91
2017-11-26T07:28:13.654Z,2.93
2017-11-26T07:29:19.386Z,2.93
2017-11-26T07:30:25.096Z,2.95
2017-11-26T07:31:30.812Z,2.95
2017-11-26T07:32:36.557Z,2.98
2017-11-26T07:33:42.094Z,2.98
2017-11-26T07:34:47.822Z,3.00
2017-11-26T07:35:53.548Z,3.01
2017-11-26T07:36:59.268Z,3.03
2017-11-26T07:38:05.013Z,3.03
2017-11-26T07:39:10.725Z,3.02
2017-11-26T07:40:17.211Z,3.05
2017-11-26T07:41:22.926Z,3.06
2017-11-26T07:42:29.410Z,3.10
2017-11-26T07:43:35.251Z,3.11
2017-11-26T07:44:40.963Z,3.14
2017-11-26T07:45:47.448Z,3.16
2017-11-26T07:46:53.163Z,3.16
2017-11-26T07:47:59.643Z,3.17
2017-11-26T07:49:05.381Z,3.17
2017-11-26T07:50:11.113Z,3.20
2017-11-26T07:51:17.590Z,3.22
2017-11-26T07:52:23.108Z,3.23
2017-11-26T07:53:29.613Z,3.27
2017-11-26T07:54:35.360Z,3.28
2017-11-26T07:55:41.381Z,3.33
2017-11-26T07:56:47.094Z,3.34
2017-11-26T07:57:53.604Z,3.38
2017-11-26T07:58:59.336Z,3.40
2017-11-26T08:00:05.069Z,3.40
2017-11-26T08:01:10.787Z,3.42
2017-11-26T08:02:17.174Z,3.45
2017-11-26T08:03:22.896Z,3.46
2017-11-26T08:04:28.615Z,3.48
2017-11-26T08:05:34.941Z,3.48
2017-11-26T08:06:41.421Z,3.50
2017-11-26T08:07:47.712Z,3.53
2017-11-26T08:08:53.247Z,3.53
2017-11-26T08:09:58.958Z,3.55
2017-11-26T08:11:04.715Z,3.58
2017-11-26T08:12:10.481Z,3.59
2017-11-26T08:13:16.264Z,3.62
2017-11-26T08:14:22.252Z,3.62
2017-11-26T08:15:28.014Z,3.66
2017-11-26T08:16:33.760Z,3.69
2017-11-26T08:17:39.470Z,3.71
2017-11-26T08:18:44.985Z,3.75
2017-11-26T08:19:51.475Z,3.80
2017-11-26T08:20:57.194Z,3.83
2017-11-26T08:22:03.700Z,3.86
2017-11-26T08:23:09.410Z,3.90
2017-11-26T08:24:15.118Z,3.93
2017-11-26T08:25:21.599Z,3.99
2017-11-26T08:26:27.309Z,4.01
2017-11-26T08:27:33.049Z,4.04
2017-11-26T08:28:38.757Z,4.09
2017-11-26T08:29:44.573Z,4.16
2017-11-26T08:30:50.282Z,4.23
2017-11-26T08:31:56.742Z,4.27
2017-11-26T08:33:03.255Z,4.30
2017-11-26T08:34:08.966Z,4.35
2017-11-26T08:35:14.695Z,4.43
2017-11-26T08:36:21.174Z,4.49
2017-11-26T08:37:26.878Z,4.59
2017-11-26T08:38:33.591Z,4.67
2017-11-26T08:39:39.319Z,4.75
2017-11-26T08:40:44.841Z,4.90
2017-11-26T08:41:51.195Z,5.04
2017-11-26T08:42:57.484Z,5.23
2017-11-26T08:44:03.056Z,5.39
2017-11-26T08:45:08.587Z,5.53
2017-11-26T08:46:14.093Z,5.70
2017-11-26T08:47:19.622Z,5.93
2017-11-26T08:48:25.138Z,6.18
2017-11-26T08:49:30.688Z,6.38
2017-11-26T08:50:36.215Z,6.51
2017-11-26T08:51:41.741Z,6.51
2017-11-26T08:52:46.627Z,6.46
2017-11-26T08:53:52.909Z,6.39
2017-11-26T08:54:59.222Z,6.39
2017-11-26T08:56:04.919Z,6.45
2017-11-26T08:57:10.447Z,6.55
2017-11-26T08:58:16.725Z,6.66
2017-11-26T08:59:22.240Z,6.84
2017-11-26T09:00:27.783Z,7.01
2017-11-26T09:01:33.303Z,7.22
2017-11-26T09:02:40.060Z,7.41
2017-11-26T09:03:45.289Z,7.59
2017-11-26T09:04:51.571Z,7.76
2017-11-26T09:05:57.097Z,7.94
2017-11-26T09:07:06.772Z,8.05
2017-11-26T09:08:13.348Z,8.21
2017-11-26T09:09:19.692Z,8.31
2017-11-26T09:10:25.261Z,8.45
2017-11-26T09:11:30.795Z,8.56
2017-11-26T09:12:36.878Z,8.66
2017-11-26T09:13:42.393Z,8.82
2017-11-26T09:14:48.693Z,8.91
2017-11-26T09:15:54.209Z,8.86
2017-11-26T09:16:59.954Z,8.79
2017-11-26T09:18:06.254Z,8.84
2017-11-26T09:19:12.131Z,8.78
2017-11-26T09:20:18.480Z,8.66
2017-11-26T09:21:24.025Z,8.64
2017-11-26T09:22:30.105Z,8.69
2017-11-26T09:23:35.794Z,8.74
2017-11-26T09:24:42.081Z,8.88
2017-11-26T09:25:47.882Z,8.95
2017-11-26T09:26:53.572Z,9.00
2017-11-26T09:27:59.121Z,9.07
2017-11-26T09:29:05.015Z,9.15
2017-11-26T09:30:11.325Z,9.21
2017-11-26T09:31:17.027Z,9.25
2017-11-26T09:32:22.728Z,9.27
2017-11-26T09:33:28.450Z,9.30
2017-11-26T09:34:34.356Z,9.33
2017-11-26T09:35:40.323Z,9.35
2017-11-26T09:36:46.082Z,9.39
2017-11-26T09:37:51.783Z,9.46
2017-11-26T09:38:58.071Z,9.49
2017-11-26T09:40:03.515Z,9.58
2017-11-26T09:41:09.326Z,9.58
2017-11-26T09:42:15.230Z,9.57
2017-11-26T09:43:22.152Z,9.54
2017-11-26T09:44:28.046Z,9.58
2017-11-26T09:45:34.550Z,9.67
2017-11-26T09:46:40.328Z,9.70
2017-11-26T09:47:46.097Z,9.70
2017-11-26T09:48:51.876Z,9.79
2017-11-26T09:49:57.676Z,9.77
2017-11-26T09:51:04.243Z,9.80
2017-11-26T09:52:09.828Z,9.85
2017-11-26T09:53:15.958Z,9.88
2017-11-26T09:54:21.746Z,9.87
2017-11-26T09:55:27.624Z,9.87
2017-11-26T09:56:34.113Z,9.81
2017-11-26T09:57:40.048Z,9.78
2017-11-26T09:58:46.034Z,9.64
2017-11-26T09:59:51.855Z,9.58
2017-11-26T10:00:57.714Z,9.53
2017-11-26T10:02:04.529Z,9.50
2017-11-26T10:03:11.015Z,9.50
2017-11-26T10:04:16.620Z,9.46
2017-11-26T10:05:23.198Z,9.47
2017-11-26T10:06:29.002Z,9.44
2017-11-26T10:07:34.741Z,9.42
2017-11-26T10:08:41.042Z,9.50
2017-11-26T10:09:46.783Z,9.54
2017-11-26T10:10:52.403Z,9.62
2017-11-26T10:11:58.896Z,9.65
2017-11-26T10:13:04.414Z,9.69
2017-11-26T10:14:10.114Z,9.69
2017-11-26T10:15:15.977Z,9.57
2017-11-26T10:16:21.743Z,9.54
2017-11-26T10:17:28.054Z,9.46
2017-11-26T10:18:34.569Z,9.45
2017-11-26T10:19:40.381Z,9.51
2017-11-26T10:20:46.094Z,9.51
2017-11-26T10:21:51.803Z,9.43
2017-11-26T10:22:57.534Z,9.40
2017-11-26T10:24:03.238Z,9.42
2017-11-26T10:25:09.503Z,9.38
2017-11-26T10:26:15.257Z,9.34
2017-11-26T10:27:20.990Z,9.29
2017-11-26T10:28:26.730Z,9.28
2017-11-26T10:29:32.443Z,9.29
2017-11-26T10:30:38.978Z,9.25
2017-11-26T10:31:44.670Z,9.24
2017-11-26T10:32:50.378Z,9.17
2017-11-26T10:33:55.710Z,9.12
2017-11-26T10:35:01.435Z,9.10
2017-11-26T10:36:07.944Z,9.12
2017-11-26T10:37:15.034Z,9.11
2017-11-26T10:38:21.985Z,9.03
2017-11-26T10:39:27.822Z,8.99
2017-11-26T10:40:33.353Z,9.04
2017-11-26T10:41:39.062Z,9.05
2017-11-26T10:42:44.614Z,9.06
2017-11-26T10:43:51.151Z,9.06
2017-11-26T10:44:57.761Z,8.96
2017-11-26T10:46:03.090Z,8.84
2017-11-26T10:47:08.472Z,8.81
2017-11-26T10:48:13.812Z,8.76
2017-11-26T10:49:19.067Z,8.70
2017-11-26T10:50:25.156Z,8.67
2017-11-26T10:51:30.802Z,8.59
2017-11-26T10:52:36.007Z,8.52
2017-11-26T10:53:41.324Z,8.52
2017-11-26T10:54:48.455Z,8.44
2017-11-26T10:55:55.333Z,8.35
2017-11-26T10:57:02.220Z,8.22
2017-11-26T10:58:07.794Z,8.11
2017-11-26T10:59:15.334Z,8.05
2017-11-26T11:00:22.405Z,7.95
2017-11-26T11:01:28.744Z,7.91
2017-11-26T11:02:35.266Z,7.88
2017-11-26T11:03:41.067Z,7.88
2017-11-26T11:04:46.854Z,7.79
2017-11-26T11:05:54.057Z,7.74
2017-11-26T11:07:03.597Z,7.70
2017-11-26T11:08:11.370Z,7.70
2017-11-26T11:09:18.507Z,7.68
2017-11-26T11:10:24.219Z,7.64
2017-11-26T11:11:30.806Z,7.61
2017-11-26T11:12:36.828Z,7.58
2017-11-26T11:13:42.532Z,7.57
2017-11-26T11:14:47.967Z,7.59
2017-11-26T11:15:53.907Z,7.53
2017-11-26T11:16:59.843Z,7.49
2017-11-26T11:18:05.919Z,7.50
2017-11-26T11:19:11.332Z,7.48
2017-11-26T11:20:17.345Z,7.49
2017-11-26T11:21:24.121Z,7.52
2017-11-26T11:22:30.349Z,7.60
2017-11-26T11:23:36.698Z,7.68
2017-11-26T11:24:43.182Z,7.70
2017-11-26T11:25:48.954Z,7.68
2017-11-26T11:26:54.659Z,7.70
2017-11-26T11:28:01.983Z,7.71
2017-11-26T11:29:08.034Z,7.78
2017-11-26T11:30:14.015Z,7.81
2017-11-26T11:31:20.850Z,7.84
2017-11-26T11:32:27.571Z,7.86
2017-11-26T11:33:33.179Z,7.83
2017-11-26T11:34:39.257Z,7.84
2017-11-26T11:35:45.908Z,7.87
2017-11-26T11:36:51.893Z,7.90
2017-11-26T11:37:58.637Z,7.91
2017-11-26T11:39:04.384Z,7.89
2017-11-26T11:40:11.253Z,7.91
2017-11-26T11:41:17.331Z,7.87
2017-11-26T11:42:23.444Z,7.89
2017-11-26T11:43:31.167Z,7.94
2017-11-26T11:44:37.467Z,8.02
2017-11-26T11:45:43.557Z,8.08
2017-11-26T11:46:52.132Z,8.20
2017-11-26T11:47:58.239Z,8.11
2017-11-26T11:49:05.750Z,7.97
2017-11-26T11:50:11.775Z,7.87
2017-11-26T11:51:18.020Z,7.83
2017-11-26T11:52:23.899Z,7.74
2017-11-26T11:53:30.947Z,7.64
2017-11-26T11:54:38.787Z,7.62
2017-11-26T11:55:44.817Z,7.61
2017-11-26T11:56:50.648Z,7.65
2017-11-26T11:57:57.723Z,7.70
2017-11-26T11:59:03.127Z,7.75
2017-11-26T12:00:08.903Z,7.79
2017-11-26T12:01:14.882Z,7.88
2017-11-26T12:02:20.408Z,7.92
2017-11-26T12:03:26.387Z,7.96
2017-11-26T12:04:33.198Z,8.03
2017-11-26T12:05:39.903Z,8.03
2017-11-26T12:06:45.686Z,8.01
2017-11-26T12:07:51.301Z,7.98
2017-11-26T12:08:57.930Z,7.96
2017-11-26T12:10:03.363Z,7.99
2017-11-26T12:11:10.103Z,8.12
2017-11-26T12:12:16.728Z,8.16
2017-11-26T12:13:23.244Z,8.19
2017-11-26T12:14:29.377Z,8.24
2017-11-26T12:15:34.946Z,8.27
2017-11-26T12:16:40.769Z,8.26
2017-11-26T12:17:46.688Z,8.45
2017-11-26T12:18:52.241Z,8.53
2017-11-26T12:19:57.804Z,8.53
2017-11-26T12:21:04.071Z,8.53
2017-11-26T12:22:09.884Z,8.55
2017-11-26T12:23:18.637Z,8.49
2017-11-26T12:24:24.104Z,8.41
2017-11-26T12:25:29.901Z,8.40
2017-11-26T12:26:36.512Z,8.52
2017-11-26T12:27:42.458Z,8.47
2017-11-26T12:28:48.041Z,8.50
2017-11-26T12:29:53.619Z,8.53
2017-11-26T12:30:59.886Z,8.51
2017-11-26T12:32:05.286Z,8.44
2017-11-26T12:33:12.290Z,8.46
2017-11-26T12:34:19.714Z,8.35
2017-11-26T12:35:28.675Z,8.36
2017-11-26T12:36:34.240Z,8.30
2017-11-26T12:37:39.816Z,8.21
2017-11-26T12:38:45.970Z,8.09
2017-11-26T12:39:51.890Z,8.00
2017-11-26T12:40:57.541Z,7.98
2017-11-26T12:42:04.396Z,7.94
2017-11-26T12:43:10.233Z,7.95
2017-11-26T12:44:15.945Z,7.92
2017-11-26T12:45:21.815Z,7.90
2017-11-26T12:46:27.301Z,7.82
2017-11-26T12:47:33.250Z,7.76
2017-11-26T12:48:40.690Z,7.71
2017-11-26T12:49:46.621Z,7.73
2017-11-26T12:50:52.359Z,7.70
2017-11-26T12:51:58.113Z,7.71
2017-11-26T12:53:03.537Z,7.67
2017-11-26T12:54:09.091Z,7.71
2017-11-26T12:55:14.919Z,7.71
2017-11-26T12:56:20.629Z,7.72
2017-11-26T12:57:27.424Z,7.71
2017-11-26T12:58:33.180Z,7.68
2017-11-26T12:59:38.474Z,7.72
2017-11-26T13:00:44.132Z,7.69
2017-11-26T13:01:49.526Z,7.70
2017-11-26T13:02:54.933Z,7.75
2017-11-26T13:03:59.990Z,7.67
2017-11-26T13:05:05.678Z,7.64
2017-11-26T13:06:10.846Z,7.67
2017-11-26T13:07:16.285Z,7.68
2017-11-26T13:08:21.467Z,7.67
2017-11-26T13:09:26.526Z,7.69
2017-11-26T13:10:31.914Z,7.72
2017-11-26T13:11:37.250Z,7.75
2017-11-26T13:12:42.690Z,7.77
2017-11-26T13:13:47.986Z,7.75
2017-11-26T13:14:54.059Z,7.73
2017-11-26T13:15:59.773Z,7.71
2017-11-26T13:17:05.953Z,7.69
2017-11-26T13:18:11.038Z,7.62
2017-11-26T13:19:16.504Z,7.56
2017-11-26T13:20:21.732Z,7.50
2017-11-26T13:21:27.040Z,7.44
2017-11-26T13:22:33.280Z,7.38
2017-11-26T13:23:39.980Z,7.28
2017-11-26T13:24:45.180Z,7.28
2017-11-26T13:25:50.642Z,7.23
2017-11-26T13:26:56.904Z,7.12
2017-11-26T13:28:02.341Z,7.09
2017-11-26T13:29:07.774Z,7.07
2017-11-26T13:30:13.167Z,7.10
2017-11-26T13:31:19.335Z,7.14
2017-11-26T13:32:25.431Z,7.17
2017-11-26T13:33:30.696Z,7.20
2017-11-26T13:34:36.162Z,7.22
2017-11-26T13:35:41.559Z,7.23
2017-11-26T13:36:47.140Z,7.29
2017-11-26T13:37:52.906Z,7.31
2017-11-26T13:38:58.313Z,7.27
2017-11-26T13:40:03.850Z,7.26
2017-11-26T13:41:09.397Z,7.23
2017-11-26T13:42:14.820Z,7.23
2017-11-26T13:43:20.233Z,7.23
2017-11-26T13:44:26.172Z,7.26
2017-11-26T13:45:32.189Z,7.26
2017-11-26T13:46:37.912Z,7.28
2017-11-26T13:47:43.480Z,7.31
2017-11-26T13:48:49.788Z,7.28
2017-11-26T13:49:55.010Z,7.27
2017-11-26T13:51:01.070Z,7.31
2017-11-26T13:52:06.493Z,7.29
2017-11-26T13:53:11.927Z,7.31
2017-11-26T13:54:17.079Z,7.24
2017-11-26T13:55:22.471Z,7.24
2017-11-26T13:56:27.864Z,7.23
2017-11-26T13:57:33.559Z,7.21
2017-11-26T13:58:39.292Z,7.16
2017-11-26T13:59:45.341Z,7.16
2017-11-26T14:00:50.457Z,7.14
2017-11-26T14:01:56.593Z,7.07
2017-11-26T14:03:02.750Z,7.05
2017-11-26T14:04:08.088Z,7.03
2017-11-26T14:05:13.871Z,7.04
2017-11-26T14:06:19.276Z,7.06
2017-11-26T14:07:24.565Z,7.04
2017-11-26T14:08:29.686Z,7.09
2017-11-26T14:09:34.926Z,7.09
2017-11-26T14:10:40.130Z,7.09
2017-11-26T14:11:45.257Z,7.11
2017-11-26T14:12:50.541Z,7.12
2017-11-26T14:13:55.659Z,7.11
2017-11-26T14:15:01.557Z,7.14
2017-11-26T14:16:06.771Z,7.07
2017-11-26T14:17:11.997Z,7.04
2017-11-26T14:18:17.997Z,7.09
2017-11-26T14:19:24.175Z,7.09
2017-11-26T14:20:29.374Z,7.05
2017-11-26T14:21:34.986Z,7.07
2017-11-26T14:22:41.034Z,7.03
2017-11-26T14:23:46.288Z,7.02
2017-11-26T14:24:53.620Z,7.06
2017-11-26T14:25:58.975Z,7.08
2017-11-26T14:27:06.736Z,7.11
2017-11-26T14:28:11.893Z,7.06
2017-11-26T14:29:18.686Z,6.99
2017-11-26T14:30:25.129Z,6.92
2017-11-26T14:31:31.543Z,6.91
2017-11-26T14:32:36.909Z,6.91
2017-11-26T14:33:42.354Z,6.90
2017-11-26T14:34:51.106Z,6.90
2017-11-26T14:37:02.175Z,6.89
2017-11-26T14:38:07.634Z,6.89
2017-11-26T14:39:13.054Z,6.89